Time;durP1;ratioP1;P1;durP2;ratioP2;P2;SDS_P1;SDS_P2;PMS_P1;PMS_P2;Temp;Humidity;BMP_temperature;BMP_pressure;BME280_temperature;BME280_humidity;BME280_pressure;Samples;Min_cycle;Max_cycle;Signal;HPM_P1;HPM_P2
2022/03/27 00:01:23;;;;;;;8.25;5.30;;;8.60;99.90;;;;;;5052045;28;20047;-76
2022/03/27 00:03:49;;;;;;;9.57;5.68;;;8.50;99.90;;;;;;5049015;28;20045;-76
2022/03/27 00:06:14;;;;;;;7.97;5.18;;;8.50;99.90;;;;;;5051376;28;20076;-75
2022/03/27 00:08:40;;;;;;;7.63;5.25;;;8.40;99.90;;;;;;5050874;28;20454;-76
2022/03/27 00:13:50;;;;;;;8.68;5.70;;;8.30;99.90;;;;;;5050791;28;20056;-75
2022/03/27 00:16:19;;;;;;;7.82;5.35;;;8.30;99.90;;;;;;5045993;28;20498;-75
2022/03/27 00:18:44;;;;;;;9.30;5.35;;;8.20;99.90;;;;;;5048886;28;20372;-75
2022/03/27 00:21:10;;;;;;;8.68;5.60;;;8.20;99.90;;;;;;5050724;28;20045;-75
2022/03/27 00:23:36;;;;;;;8.55;5.43;;;8.20;99.90;;;;;;5049722;28;20076;-75
2022/03/27 00:26:03;;;;;;;8.68;6.00;;;8.20;99.90;;;;;;5050102;28;20116;-76
2022/03/27 00:28:32;;;;;;;8.70;5.45;;;8.20;99.90;;;;;;5050692;28;20482;-76
2022/03/27 00:31:17;;;;;;;8.80;5.30;;;8.20;99.90;;;;;;5049602;28;20400;-76
2022/03/27 00:33:44;;;;;;;8.25;5.38;;;8.20;99.90;;;;;;5036480;28;20076;-76
2022/03/27 00:36:13;;;;;;;8.52;5.32;;;8.20;99.90;;;;;;5049717;28;20049;-76
2022/03/27 00:38:39;;;;;;;9.32;5.90;;;8.30;99.90;;;;;;5036529;28;20085;-76
2022/03/27 00:41:05;;;;;;;8.00;5.20;;;8.30;99.90;;;;;;5046712;28;20041;-75
2022/03/27 00:43:33;;;;;;;9.23;5.80;;;8.20;99.90;;;;;;5049718;28;20639;-76
2022/03/27 00:45:59;;;;;;;9.30;5.50;;;8.20;99.90;;;;;;5047623;28;20048;-75
2022/03/27 00:48:25;;;;;;;9.98;5.82;;;8.10;99.90;;;;;;5063445;28;20052;-76
2022/03/27 00:50:53;;;;;;;9.95;5.93;;;8.00;99.90;;;;;;5047567;28;20044;-76
2022/03/27 00:53:19;;;;;;;8.50;5.15;;;8.00;99.90;;;;;;5046124;28;20037;-76
2022/03/27 00:55:46;;;;;;;9.20;5.80;;;8.00;99.90;;;;;;5048395;28;20049;-76
2022/03/27 00:58:13;;;;;;;8.55;5.55;;;7.90;99.90;;;;;;5049890;28;20466;-76
2022/03/27 01:00:38;;;;;;;8.77;5.60;;;7.90;99.90;;;;;;5030544;28;20064;-76
2022/03/27 01:03:12;;;;;;;8.85;5.68;;;7.90;99.90;;;;;;5048892;28;20068;-76
2022/03/27 01:05:43;;;;;;;8.70;5.70;;;7.90;99.90;;;;;;5045681;28;20127;-76
2022/03/27 01:08:11;;;;;;;8.90;5.35;;;7.90;99.90;;;;;;5050199;28;20052;-76
2022/03/27 01:10:38;;;;;;;8.73;5.55;;;7.90;99.90;;;;;;5063485;28;20037;-75
2022/03/27 01:13:19;;;;;;;8.88;5.82;;;7.80;99.90;;;;;;5044836;28;20521;-75
2022/03/27 01:15:57;;;;;;;8.43;5.47;;;7.70;99.90;;;;;;5036751;28;20092;-75
2022/03/27 01:18:23;;;;;;;9.32;5.90;;;7.70;99.90;;;;;;5042172;28;20141;-75
2022/03/27 01:20:49;;;;;;;8.68;5.90;;;7.60;99.90;;;;;;5033030;28;20218;-75
2022/03/27 01:23:15;;;;;;;9.20;5.85;;;7.60;99.90;;;;;;5045972;28;20041;-76
2022/03/27 01:25:44;;;;;;;10.57;6.15;;;7.50;99.90;;;;;;5047397;28;20160;-75
2022/03/27 01:28:13;;;;;;;8.98;5.57;;;7.50;99.90;;;;;;5063021;28;20044;-76
2022/03/27 01:30:39;;;;;;;10.50;6.20;;;7.50;99.90;;;;;;5045099;28;20116;-75
2022/03/27 01:33:09;;;;;;;10.82;6.40;;;7.40;99.90;;;;;;5030992;28;20202;-75
2022/03/27 01:35:36;;;;;;;10.13;6.95;;;7.40;99.90;;;;;;5047813;28;20053;-75
2022/03/27 01:38:02;;;;;;;12.80;7.60;;;7.40;99.90;;;;;;5045742;28;20340;-75
2022/03/27 01:40:27;;;;;;;12.25;7.45;;;7.30;99.90;;;;;;5038573;28;20037;-75
2022/03/27 01:42:55;;;;;;;11.88;7.43;;;7.30;99.90;;;;;;5049346;28;20435;-75
2022/03/27 01:45:24;;;;;;;10.93;6.53;;;7.40;99.90;;;;;;5047762;28;20102;-75
2022/03/27 01:47:50;;;;;;;12.07;7.70;;;7.40;99.90;;;;;;5048784;28;20045;-75
2022/03/27 01:50:16;;;;;;;12.38;7.35;;;7.40;99.90;;;;;;5059915;28;20045;-75
2022/03/27 01:52:41;;;;;;;12.90;8.00;;;7.40;99.90;;;;;;5043822;28;20135;-76
2022/03/27 01:55:13;;;;;;;13.57;8.07;;;7.30;99.90;;;;;;5044200;28;20516;-75
2022/03/27 01:57:41;;;;;;;12.48;7.60;;;7.30;99.90;;;;;;5045057;28;20384;-75
2022/03/27 02:00:09;;;;;;;11.70;7.22;;;7.30;99.90;;;;;;5049494;28;20121;-75
2022/03/27 02:02:35;;;;;;;12.77;8.15;;;7.30;99.90;;;;;;5048301;28;20056;-76
2022/03/27 02:05:01;;;;;;;13.20;7.60;;;7.30;99.90;;;;;;5048674;28;20033;-75
2022/03/27 02:07:27;;;;;;;13.55;7.88;;;7.30;99.90;;;;;;5049714;28;20060;-76
2022/03/27 02:09:52;;;;;;;12.00;7.72;;;7.30;99.90;;;;;;5054032;28;20045;-76
2022/03/27 02:12:18;;;;;;;12.85;8.20;;;7.30;99.90;;;;;;5050762;28;20041;-75
2022/03/27 02:14:43;;;;;;;13.75;8.48;;;7.30;99.90;;;;;;5047796;28;20041;-75
2022/03/27 02:17:10;;;;;;;13.00;8.90;;;7.30;99.90;;;;;;5045398;28;20475;-75
2022/03/27 02:19:36;;;;;;;15.45;9.57;;;7.20;99.90;;;;;;5048602;28;20092;-76
2022/03/27 02:22:02;;;;;;;13.50;8.52;;;7.10;99.90;;;;;;5049677;28;20088;-75
2022/03/27 02:24:28;;;;;;;14.73;9.23;;;7.00;99.90;;;;;;5050106;28;20036;-75
2022/03/27 02:26:53;;;;;;;13.60;8.95;;;7.10;99.90;;;;;;5040840;28;20519;-76
2022/03/27 02:29:19;;;;;;;14.35;8.57;;;7.00;99.90;;;;;;5058103;28;20633;-75
2022/03/27 02:31:46;;;;;;;16.33;9.70;;;7.00;99.90;;;;;;5048821;28;20080;-76
2022/03/27 02:34:12;;;;;;;14.45;9.77;;;6.90;99.90;;;;;;5047926;28;20123;-76
2022/03/27 02:36:38;;;;;;;14.23;9.32;;;6.90;99.90;;;;;;5049113;28;20353;-75
2022/03/27 02:39:04;;;;;;;14.05;9.18;;;6.80;99.90;;;;;;5047971;28;20048;-75
2022/03/27 02:41:29;;;;;;;12.35;7.40;;;6.80;99.90;;;;;;5048088;28;20049;-75
2022/03/27 02:43:55;;;;;;;11.80;7.78;;;6.80;99.90;;;;;;5049841;28;20052;-76
2022/03/27 02:46:20;;;;;;;13.95;8.00;;;6.80;99.90;;;;;;5043594;28;20159;-75
2022/03/27 02:48:46;;;;;;;12.65;7.30;;;6.70;99.90;;;;;;5043193;28;20122;-75
2022/03/27 02:51:12;;;;;;;11.20;7.32;;;6.70;99.90;;;;;;5047284;28;20037;-75
2022/03/27 02:53:37;;;;;;;10.57;6.47;;;6.60;99.90;;;;;;5046494;28;20083;-75
2022/03/27 02:56:04;;;;;;;10.77;6.40;;;6.50;99.90;;;;;;5046886;28;20120;-76
2022/03/27 02:58:30;;;;;;;9.90;6.10;;;6.50;99.90;;;;;;5047153;28;20045;-76
2022/03/27 03:00:56;;;;;;;9.68;6.05;;;6.50;99.90;;;;;;5048470;28;20442;-76
2022/03/27 03:03:22;;;;;;;11.02;6.35;;;6.50;99.90;;;;;;5045638;28;20529;-76
2022/03/27 03:05:48;;;;;;;10.90;6.32;;;6.40;99.90;;;;;;5063738;28;20120;-75
2022/03/27 03:08:17;;;;;;;11.40;6.60;;;6.30;99.90;;;;;;5048397;28;20041;-75
2022/03/27 03:10:43;;;;;;;14.02;6.85;;;6.30;99.90;;;;;;5043962;28;20037;-75
2022/03/27 03:13:10;;;;;;;9.07;5.00;;;6.20;99.90;;;;;;5047544;28;20177;-75
2022/03/27 03:15:43;;;;;;;10.95;5.90;;;6.20;99.90;;;;;;5048209;28;20049;-74
2022/03/27 03:18:10;;;;;;;15.13;5.97;;;6.20;99.90;;;;;;5047318;28;20488;-75
2022/03/27 03:20:36;;;;;;;12.10;6.28;;;6.10;99.90;;;;;;5044719;28;20467;-76
2022/03/27 03:23:02;;;;;;;11.25;5.85;;;6.00;99.90;;;;;;5053170;28;20052;-75
2022/03/27 03:25:29;;;;;;;11.45;6.28;;;6.00;99.90;;;;;;5049971;28;20048;-75
2022/03/27 03:27:54;;;;;;;11.60;5.97;;;6.00;99.90;;;;;;5053658;28;20049;-75
2022/03/27 03:30:20;;;;;;;11.68;6.07;;;6.00;99.90;;;;;;5049554;28;20067;-75
2022/03/27 03:32:46;;;;;;;13.63;5.90;;;5.90;99.90;;;;;;5061184;28;20472;-75
2022/03/27 03:35:11;;;;;;;14.82;6.43;;;5.90;99.90;;;;;;5063950;28;20102;-75
2022/03/27 03:37:37;;;;;;;10.25;5.40;;;5.90;99.90;;;;;;5061850;28;20045;-75
2022/03/27 03:40:09;;;;;;;11.95;5.63;;;5.90;99.90;;;;;;5055666;28;20047;-75
2022/03/27 03:42:35;;;;;;;11.80;5.60;;;5.90;99.90;;;;;;5046679;28;20462;-75
2022/03/27 03:45:01;;;;;;;12.60;6.25;;;5.80;99.90;;;;;;5051256;28;20040;-75
2022/03/27 03:47:27;;;;;;;11.80;5.90;;;5.80;99.90;;;;;;5052128;28;20045;-75
2022/03/27 03:49:53;;;;;;;12.88;6.13;;;5.80;99.90;;;;;;5047132;28;20099;-75
2022/03/27 03:52:18;;;;;;;14.93;6.70;;;5.70;99.90;;;;;;5050111;28;20041;-75
2022/03/27 03:54:44;;;;;;;10.82;5.60;;;5.60;99.90;;;;;;5049072;28;20087;-75
2022/03/27 03:57:10;;;;;;;10.18;5.50;;;5.60;99.90;;;;;;5047016;28;20057;-74
2022/03/27 03:59:36;;;;;;;10.02;5.53;;;5.60;99.90;;;;;;5052256;28;20068;-77
2022/03/27 04:02:03;;;;;;;12.68;6.13;;;5.60;99.90;;;;;;5038904;28;20052;-76
2022/03/27 04:04:30;;;;;;;11.55;5.18;;;5.60;99.90;;;;;;5051559;28;20114;-76
2022/03/27 04:06:56;;;;;;;10.15;5.80;;;5.60;99.90;;;;;;5052254;28;20053;-76
2022/03/27 04:09:21;;;;;;;12.95;6.55;;;5.60;99.90;;;;;;5052274;28;20049;-76
2022/03/27 04:11:47;;;;;;;12.75;6.43;;;5.60;99.90;;;;;;5052136;28;20093;-76
2022/03/27 04:14:13;;;;;;;13.57;6.07;;;5.50;99.90;;;;;;5055823;28;20123;-76
2022/03/27 04:16:39;;;;;;;17.67;6.35;;;5.50;99.90;;;;;;5052394;28;20049;-76
2022/03/27 04:19:05;;;;;;;14.40;6.38;;;5.50;99.90;;;;;;5051130;28;20037;-76
2022/03/27 04:21:31;;;;;;;13.25;6.38;;;5.50;99.90;;;;;;5051955;28;20045;-76
2022/03/27 04:23:57;;;;;;;14.07;6.60;;;5.60;99.90;;;;;;5032714;28;20045;-76
2022/03/27 04:26:22;;;;;;;12.23;6.75;;;5.50;99.90;;;;;;5055577;28;20037;-76
2022/03/27 04:28:48;;;;;;;16.70;6.88;;;5.50;99.90;;;;;;5047609;28;20644;-76
2022/03/27 04:31:14;;;;;;;15.70;6.88;;;5.50;99.90;;;;;;5050254;28;20126;-75
2022/03/27 04:33:39;;;;;;;15.15;7.10;;;5.50;99.90;;;;;;5049677;28;20080;-75
2022/03/27 04:36:06;;;;;;;13.60;6.97;;;5.50;99.90;;;;;;5055930;28;20083;-75
2022/03/27 04:38:32;;;;;;;15.63;7.07;;;5.60;99.90;;;;;;5049921;28;20075;-76
2022/03/27 04:40:57;;;;;;;14.48;6.97;;;5.50;99.90;;;;;;5045642;28;20045;-76
2022/03/27 04:43:23;;;;;;;15.45;7.40;;;5.50;99.90;;;;;;5048059;28;20367;-76
2022/03/27 04:45:49;;;;;;;13.32;7.60;;;5.50;99.90;;;;;;5047265;28;20400;-76
2022/03/27 04:48:15;;;;;;;19.17;7.70;;;5.50;99.90;;;;;;5048587;28;20087;-75
2022/03/27 04:50:41;;;;;;;13.98;7.20;;;5.40;99.90;;;;;;5048557;28;20044;-75
2022/03/27 04:53:06;;;;;;;17.35;7.82;;;5.40;99.90;;;;;;5046776;28;20045;-76
2022/03/27 04:55:32;;;;;;;18.67;7.93;;;5.40;99.90;;;;;;5049934;28;20103;-75
2022/03/27 04:57:58;;;;;;;14.05;7.88;;;5.40;99.90;;;;;;5047785;28;20080;-76
2022/03/27 05:00:23;;;;;;;20.02;8.07;;;5.40;99.90;;;;;;5057841;28;20465;-76
2022/03/27 05:02:49;;;;;;;17.00;8.05;;;5.40;99.90;;;;;;5042094;28;20207;-76
2022/03/27 05:05:15;;;;;;;19.05;8.70;;;5.40;99.90;;;;;;5047592;28;20048;-76
2022/03/27 05:07:42;;;;;;;21.70;10.20;;;5.40;99.90;;;;;;5049495;28;20045;-75
2022/03/27 05:10:09;;;;;;;19.30;9.95;;;5.40;99.90;;;;;;5046515;28;20048;-76
2022/03/27 05:12:35;;;;;;;18.25;10.32;;;5.40;99.90;;;;;;5050127;28;20132;-75
2022/03/27 05:15:01;;;;;;;19.52;9.07;;;5.40;99.90;;;;;;5048353;28;20125;-76
2022/03/27 05:17:26;;;;;;;17.27;8.57;;;5.40;99.90;;;;;;5033902;28;20056;-75
2022/03/27 05:19:52;;;;;;;15.57;8.38;;;5.40;99.90;;;;;;5044365;28;20097;-75
2022/03/27 05:22:18;;;;;;;17.45;8.40;;;5.30;99.90;;;;;;5044480;28;20363;-75
2022/03/27 05:24:46;;;;;;;17.90;7.22;;;5.40;99.90;;;;;;5044850;28;20048;-75
2022/03/27 05:27:12;;;;;;;16.40;6.80;;;5.40;99.90;;;;;;5051287;28;20052;-75
2022/03/27 05:29:38;;;;;;;18.65;7.60;;;5.40;99.90;;;;;;5048268;28;20091;-76
2022/03/27 05:32:04;;;;;;;16.67;7.22;;;5.40;99.90;;;;;;5049104;28;20044;-75
2022/03/27 05:34:30;;;;;;;16.90;6.93;;;5.40;99.90;;;;;;5049039;28;20100;-75
2022/03/27 05:36:55;;;;;;;16.83;7.07;;;5.40;99.90;;;;;;5047691;28;20125;-73
2022/03/27 05:39:21;;;;;;;18.58;7.22;;;5.50;99.90;;;;;;5047266;28;20057;-74
2022/03/27 05:41:46;;;;;;;14.30;6.75;;;5.40;99.90;;;;;;5046873;28;20044;-74
2022/03/27 05:44:12;;;;;;;19.20;7.65;;;5.40;99.90;;;;;;5044219;28;20481;-74
2022/03/27 05:46:38;;;;;;;13.30;6.97;;;5.40;99.90;;;;;;5046469;28;20080;-73
2022/03/27 05:49:03;;;;;;;18.27;7.10;;;5.40;99.90;;;;;;5043040;28;20449;-75
2022/03/27 05:51:29;;;;;;;17.20;7.05;;;5.50;99.90;;;;;;5037768;28;20502;-75
2022/03/27 05:53:54;;;;;;;15.05;7.10;;;5.40;99.90;;;;;;5038002;28;20032;-72
2022/03/27 05:56:20;;;;;;;19.85;7.45;;;5.50;99.90;;;;;;5042525;28;20132;-73
2022/03/27 05:58:45;;;;;;;18.70;7.80;;;5.50;99.90;;;;;;5048944;28;20076;-73
2022/03/27 06:01:11;;;;;;;19.10;7.65;;;5.40;99.90;;;;;;5050678;28;20041;-73
2022/03/27 06:03:36;;;;;;;17.95;7.82;;;5.50;99.90;;;;;;5039970;28;20073;-73
2022/03/27 06:06:03;;;;;;;20.77;9.80;;;5.50;99.90;;;;;;5034630;28;20487;-73
2022/03/27 06:08:29;;;;;;;22.33;9.63;;;5.50;99.90;;;;;;5048374;28;20364;-75
2022/03/27 06:10:55;;;;;;;22.30;10.07;;;5.60;99.90;;;;;;5050283;28;20087;-73
2022/03/27 06:13:21;;;;;;;22.88;12.48;;;5.60;99.90;;;;;;5050639;28;20049;-74
2022/03/27 06:15:46;;;;;;;25.38;11.93;;;5.60;99.90;;;;;;5050227;28;20071;-74
2022/03/27 06:18:12;;;;;;;19.27;9.00;;;5.60;99.90;;;;;;5049405;28;20053;-74
2022/03/27 06:20:39;;;;;;;22.17;8.98;;;5.60;99.90;;;;;;5050259;28;20080;-78
2022/03/27 06:23:06;;;;;;;23.08;8.52;;;5.70;99.90;;;;;;5043992;28;20090;-76
2022/03/27 06:25:33;;;;;;;27.92;9.25;;;5.70;99.90;;;;;;5040539;28;20384;-76
2022/03/27 06:27:59;;;;;;;27.38;9.27;;;5.70;99.90;;;;;;5063813;28;20426;-74
2022/03/27 06:30:28;;;;;;;22.67;9.38;;;5.80;99.90;;;;;;5046147;28;20570;-74
2022/03/27 06:32:53;;;;;;;25.40;9.52;;;5.90;99.90;;;;;;5047892;28;20061;-75
2022/03/27 06:35:22;;;;;;;30.38;11.10;;;5.90;99.90;;;;;;5046489;28;20321;-75
2022/03/27 06:37:48;;;;;;;31.17;9.60;;;6.10;99.90;;;;;;5042909;28;20085;-74
2022/03/27 06:40:15;;;;;;;29.20;10.27;;;6.20;99.90;;;;;;5046706;28;20040;-75
2022/03/27 06:42:43;;;;;;;27.10;10.13;;;6.20;99.90;;;;;;5045192;28;20452;-75
2022/03/27 06:45:12;;;;;;;27.38;10.02;;;6.30;99.90;;;;;;5044760;28;20067;-75
2022/03/27 06:47:38;;;;;;;23.73;9.73;;;6.40;99.90;;;;;;5040926;28;20041;-75
2022/03/27 06:50:05;;;;;;;30.30;10.00;;;6.50;99.90;;;;;;5044174;28;20041;-75
2022/03/27 06:52:32;;;;;;;27.38;8.20;;;6.50;99.90;;;;;;5057628;28;20075;-74
2022/03/27 06:54:58;;;;;;;26.95;8.63;;;6.60;99.90;;;;;;5030110;28;20044;-76
2022/03/27 06:57:24;;;;;;;30.50;7.97;;;6.60;99.90;;;;;;5049711;28;20080;-74
2022/03/27 07:05:20;;;;;;;27.70;8.15;;;6.80;99.90;;;;;;5049319;28;20056;-76
2022/03/27 07:07:46;;;;;;;27.42;7.75;;;6.80;99.90;;;;;;5036638;28;20045;-74
2022/03/27 07:10:12;;;;;;;28.33;8.35;;;6.90;99.90;;;;;;5049076;28;20037;-74
2022/03/27 07:12:38;;;;;;;27.05;8.35;;;6.90;99.90;;;;;;5048110;28;20120;-75
2022/03/27 07:15:05;;;;;;;29.70;9.15;;;7.00;99.90;;;;;;5041098;28;20385;-74
2022/03/27 07:17:31;;;;;;;24.77;8.35;;;7.20;99.90;;;;;;5048850;28;20064;-71
2022/03/27 07:19:56;;;;;;;26.50;8.40;;;7.30;99.90;;;;;;5047941;28;20055;-72
2022/03/27 07:22:22;;;;;;;27.75;8.73;;;7.40;99.90;;;;;;5051404;28;20072;-73
2022/03/27 07:24:48;;;;;;;26.50;8.95;;;7.50;99.90;;;;;;5048311;28;20668;-75
2022/03/27 07:27:14;;;;;;;31.08;8.20;;;7.40;99.90;;;;;;5048540;28;20045;-75
2022/03/27 07:29:40;;;;;;;24.63;8.90;;;7.40;99.90;;;;;;5048298;28;20417;-76
2022/03/27 07:32:06;;;;;;;28.40;8.07;;;7.50;99.90;;;;;;5050594;28;20148;-77
2022/03/27 07:34:35;;;;;;;29.25;9.25;;;7.50;99.90;;;;;;5044849;28;20035;-76
2022/03/27 07:37:02;;;;;;;33.75;9.02;;;7.50;99.90;;;;;;5035988;28;20083;-71
2022/03/27 07:39:28;;;;;;;30.77;9.77;;;7.60;99.90;;;;;;5036853;28;20052;-78
2022/03/27 07:41:54;;;;;;;25.45;9.05;;;7.70;99.90;;;;;;5045515;28;20044;-76
2022/03/27 07:44:19;;;;;;;27.10;8.43;;;7.90;99.90;;;;;;5045298;28;20175;-76
2022/03/27 07:46:46;;;;;;;25.88;9.43;;;8.10;99.90;;;;;;5037081;28;20037;-76
2022/03/27 07:49:12;;;;;;;35.95;9.93;;;8.10;99.90;;;;;;5043137;28;20470;-75
2022/03/27 07:51:38;;;;;;;26.20;8.80;;;8.10;99.90;;;;;;5033472;28;20096;-76
2022/03/27 07:54:03;;;;;;;26.13;8.30;;;8.10;99.90;;;;;;5045094;28;20056;-77
2022/03/27 07:56:32;;;;;;;29.85;9.15;;;8.00;99.90;;;;;;5041727;28;20076;-76
2022/03/27 07:58:57;;;;;;;23.95;8.35;;;7.90;99.90;;;;;;5040581;28;20434;-76
2022/03/27 08:01:24;;;;;;;28.95;8.48;;;7.80;99.90;;;;;;5032579;28;20095;-76
2022/03/27 08:03:50;;;;;;;28.92;8.57;;;7.70;99.90;;;;;;5050406;28;20086;-78
2022/03/27 08:06:16;;;;;;;27.30;8.82;;;7.60;99.90;;;;;;5030621;28;20041;-78
2022/03/27 08:08:42;;;;;;;29.90;9.02;;;7.60;99.90;;;;;;5049869;28;20067;-78
2022/03/27 08:11:09;;;;;;;32.55;8.45;;;7.60;99.90;;;;;;5047820;28;20685;-77
2022/03/27 08:13:35;;;;;;;27.38;8.23;;;7.60;99.90;;;;;;5050273;28;20041;-77
2022/03/27 08:16:01;;;;;;;30.52;9.90;;;7.60;99.90;;;;;;5040438;28;21910;-78
2022/03/27 08:18:26;;;;;;;28.13;7.68;;;7.70;99.90;;;;;;5051003;28;20037;-77
2022/03/27 08:20:52;;;;;;;35.10;10.43;;;8.00;99.90;;;;;;5045680;28;20367;-76
2022/03/27 08:23:18;;;;;;;31.38;9.05;;;8.30;99.90;;;;;;5051228;28;20052;-77
2022/03/27 08:28:28;;;;;;;23.05;7.80;;;8.70;99.90;;;;;;5052436;28;20068;-76
2022/03/27 08:30:53;;;;;;;29.48;7.82;;;8.80;99.90;;;;;;5050041;28;20037;-79
2022/03/27 08:33:19;;;;;;;25.88;7.90;;;8.90;99.90;;;;;;5050438;28;20041;-76
2022/03/27 08:35:45;;;;;;;25.48;8.02;;;9.00;99.90;;;;;;5046456;28;20037;-80
2022/03/27 08:38:15;;;;;;;32.92;7.75;;;9.20;99.90;;;;;;5041942;28;20045;-79
2022/03/27 08:40:42;;;;;;;25.45;7.95;;;9.30;99.90;;;;;;5051527;28;20045;-80
2022/03/27 08:43:14;;;;;;;29.25;7.95;;;9.50;99.90;;;;;;5051980;28;20467;-79
2022/03/27 08:45:40;;;;;;;30.65;8.07;;;9.70;99.90;;;;;;5051808;28;20075;-76
2022/03/27 08:48:07;;;;;;;30.45;7.85;;;9.80;99.90;;;;;;5051858;28;20041;-76
2022/03/27 08:50:43;;;;;;;29.27;8.52;;;9.90;99.90;;;;;;5050266;28;20045;-78
2022/03/27 08:53:11;;;;;;;30.77;8.45;;;10.00;99.90;;;;;;5048840;28;20045;-79
2022/03/27 08:55:58;;;;;;;29.08;7.80;;;10.20;99.90;;;;;;5043705;28;20069;-78
2022/03/27 08:58:34;;;;;;;28.08;8.35;;;10.20;99.90;;;;;;5050261;28;20045;-77
2022/03/27 09:01:00;;;;;;;28.77;8.02;;;10.20;99.90;;;;;;5051162;28;20090;-78
2022/03/27 09:03:26;;;;;;;28.27;8.13;;;10.10;99.90;;;;;;5050013;28;20436;-78
2022/03/27 09:05:53;;;;;;;26.25;7.75;;;10.10;99.90;;;;;;5036185;28;20063;-78
2022/03/27 09:08:18;;;;;;;33.22;8.57;;;10.10;99.90;;;;;;5049547;28;20048;-79
2022/03/27 09:10:45;;;;;;;32.10;8.20;;;10.00;99.90;;;;;;5036489;28;20048;-76
2022/03/27 09:13:16;;;;;;;25.38;7.60;;;10.00;99.90;;;;;;5048736;28;20059;-78
2022/03/27 09:15:45;;;;;;;28.17;8.40;;;10.00;99.90;;;;;;5051391;28;20071;-75
2022/03/27 09:18:12;;;;;;;30.40;8.15;;;9.90;99.90;;;;;;5049664;28;20113;-81
2022/03/27 09:20:43;;;;;;;28.17;8.20;;;9.80;99.90;;;;;;5050077;28;20055;-80
2022/03/27 09:23:35;;;;;;;27.92;7.57;;;9.90;99.90;;;;;;5049763;28;20069;-79
2022/03/27 09:26:10;;;;;;;30.85;8.32;;;9.80;99.90;;;;;;5042488;28;20037;-80
2022/03/27 09:28:47;;;;;;;24.73;6.35;;;10.00;99.90;;;;;;5031596;28;20041;-80
2022/03/27 09:31:18;;;;;;;26.83;7.75;;;10.00;99.90;;;;;;5033256;28;20037;-78
2022/03/27 09:33:57;;;;;;;27.10;6.68;;;10.10;99.90;;;;;;5035650;28;20040;-79
2022/03/27 09:36:34;;;;;;;29.20;6.97;;;10.10;99.90;;;;;;5026516;28;20045;-79
2022/03/27 09:39:08;;;;;;;25.45;6.30;;;10.10;99.90;;;;;;5037101;28;20434;-79
2022/03/27 09:41:44;;;;;;;24.73;6.75;;;10.10;99.90;;;;;;5037000;28;20045;-79
2022/03/27 09:44:19;;;;;;;27.30;6.35;;;10.10;99.90;;;;;;5044413;28;20075;-79
2022/03/27 09:47:02;;;;;;;22.63;6.22;;;10.20;99.90;;;;;;5045247;28;20483;-79
2022/03/27 09:49:31;;;;;;;25.95;5.97;;;10.20;99.90;;;;;;5041752;28;20048;-79
2022/03/27 09:52:10;;;;;;;25.65;6.03;;;10.30;99.90;;;;;;5061132;28;20060;-79
2022/03/27 09:54:58;;;;;;;27.98;6.55;;;10.30;99.90;;;;;;5040289;28;20147;-79
2022/03/27 09:57:41;;;;;;;31.65;6.60;;;10.40;99.90;;;;;;5043602;28;20084;-80
2022/03/27 10:00:18;;;;;;;18.90;6.32;;;10.40;99.90;;;;;;5045513;28;20041;-78
2022/03/27 10:02:44;;;;;;;18.30;5.80;;;10.50;99.90;;;;;;5041750;28;20055;-79
2022/03/27 10:05:15;;;;;;;21.42;5.82;;;10.60;99.90;;;;;;5043693;28;20063;-79
2022/03/27 10:07:45;;;;;;;26.02;5.18;;;10.70;99.90;;;;;;5050107;28;20049;-79
2022/03/27 10:10:19;;;;;;;22.42;5.07;;;10.70;99.90;;;;;;5050200;28;20194;-80
2022/03/27 10:12:48;;;;;;;24.90;5.00;;;10.80;99.90;;;;;;5034302;28;20052;-81
2022/03/27 10:15:20;;;;;;;20.00;4.78;;;10.80;99.90;;;;;;5046425;28;20044;-81
2022/03/27 10:17:57;;;;;;;22.30;5.05;;;10.90;99.90;;;;;;5063165;28;20483;-79
2022/03/27 10:20:27;;;;;;;21.95;5.30;;;10.90;99.90;;;;;;5060238;28;20486;-79
2022/03/27 10:23:01;;;;;;;23.17;5.20;;;11.00;99.90;;;;;;5044565;28;20102;-80
2022/03/27 10:25:35;;;;;;;23.80;4.93;;;11.10;99.90;;;;;;5043461;28;20091;-79
2022/03/27 10:28:01;;;;;;;17.38;4.68;;;11.20;99.90;;;;;;5043488;28;20064;-80
2022/03/27 10:30:28;;;;;;;19.48;4.53;;;11.30;99.60;;;;;;5044774;28;20580;-81
2022/03/27 10:32:57;;;;;;;18.88;5.53;;;11.30;99.90;;;;;;5046005;28;20051;-78
2022/03/27 10:35:52;;;;;;;27.20;5.60;;;11.40;99.90;;;;;;5048353;28;20041;-79
2022/03/27 10:38:35;;;;;;;17.20;5.00;;;11.50;99.90;;;;;;5045771;28;20059;-79
2022/03/27 10:41:13;;;;;;;23.15;5.47;;;11.60;99.90;;;;;;5032969;28;20346;-78
2022/03/27 10:44:00;;;;;;;18.88;4.95;;;11.60;99.60;;;;;;5058345;28;20045;-79
2022/03/27 10:46:27;;;;;;;16.30;4.35;;;11.60;96.80;;;;;;5062568;28;20049;-78
2022/03/27 10:49:08;;;;;;;19.73;5.40;;;11.70;98.80;;;;;;5046418;28;20120;-78
2022/03/27 10:51:36;;;;;;;21.25;5.25;;;11.80;95.10;;;;;;5041477;28;20041;-78
2022/03/27 10:54:08;;;;;;;19.35;5.15;;;11.90;97.90;;;;;;5047423;28;20033;-79
2022/03/27 10:56:43;;;;;;;24.83;6.03;;;11.90;94.80;;;;;;5047391;28;20372;-79
2022/03/27 10:59:16;;;;;;;19.52;4.93;;;11.90;96.20;;;;;;5046334;28;20041;-80
2022/03/27 11:01:45;;;;;;;22.20;5.45;;;12.00;93.30;;;;;;5045662;28;20048;-79
2022/03/27 11:04:12;;;;;;;19.65;4.53;;;12.10;93.80;;;;;;5046218;28;20053;-80
2022/03/27 11:06:46;;;;;;;21.77;4.72;;;12.20;95.50;;;;;;5055270;28;21412;-79
2022/03/27 11:09:36;;;;;;;17.07;4.87;;;12.30;92.60;;;;;;5051915;28;20094;-79
2022/03/27 11:12:24;;;;;;;23.42;5.18;;;12.30;90.90;;;;;;5048063;28;20310;-79
2022/03/27 11:14:53;;;;;;;17.13;4.50;;;12.40;90.30;;;;;;5041007;28;20080;-79
2022/03/27 11:17:38;;;;;;;17.33;4.20;;;12.40;91.00;;;;;;5046816;28;20529;-79
2022/03/27 11:20:06;;;;;;;14.43;4.18;;;12.50;89.00;;;;;;5027567;28;20056;-79
2022/03/27 11:22:51;;;;;;;18.95;4.10;;;12.50;87.00;;;;;;5037465;28;20362;-79
2022/03/27 11:25:38;;;;;;;21.33;4.37;;;12.50;83.70;;;;;;5044962;28;20120;-78
2022/03/27 11:28:09;;;;;;;17.38;4.38;;;12.60;84.60;;;;;;5048928;28;20132;-75
2022/03/27 11:30:45;;;;;;;18.23;4.32;;;12.70;86.80;;;;;;5048444;28;20041;-77
2022/03/27 11:33:15;;;;;;;17.60;4.10;;;12.70;86.60;;;;;;5045435;28;20045;-74
2022/03/27 11:36:01;;;;;;;19.42;3.95;;;12.80;88.10;;;;;;5044197;28;20090;-73
2022/03/27 11:38:54;;;;;;;17.85;3.92;;;13.00;82.50;;;;;;5037954;28;20125;-75
2022/03/27 11:41:43;;;;;;;12.93;3.80;;;13.10;83.90;;;;;;5036734;28;20147;-73
2022/03/27 11:47:12;;;;;;;20.95;4.43;;;13.30;80.70;;;;;;5049155;28;20052;-73
2022/03/27 11:49:41;;;;;;;18.83;3.78;;;13.40;79.50;;;;;;5043674;28;20116;-74
2022/03/27 11:52:17;;;;;;;19.13;4.50;;;13.40;78.80;;;;;;5046721;28;20033;-72
2022/03/27 11:54:43;;;;;;;14.68;4.53;;;13.50;74.40;;;;;;5063702;28;20040;-73
2022/03/27 11:57:10;;;;;;;18.77;4.53;;;13.50;76.70;;;;;;5040238;28;20213;-81
2022/03/27 11:59:51;;;;;;;17.65;4.05;;;13.60;78.30;;;;;;5041264;28;20507;-77
2022/03/27 12:02:22;;;;;;;19.48;3.67;;;13.60;73.90;;;;;;5051980;28;20119;-80
2022/03/27 12:04:52;;;;;;;17.10;3.92;;;13.70;74.50;;;;;;5043645;28;20049;-78
2022/03/27 12:07:18;;;;;;;19.10;4.28;;;13.70;75.70;;;;;;5062244;28;20060;-77
2022/03/27 12:09:43;;;;;;;16.85;4.13;;;13.70;75.20;;;;;;5049011;28;20037;-77
2022/03/27 12:12:14;;;;;;;20.23;4.18;;;13.70;74.00;;;;;;5052060;28;20052;-77
2022/03/27 12:14:52;;;;;;;17.13;3.95;;;13.60;73.50;;;;;;5059622;28;20488;-77
2022/03/27 12:17:18;;;;;;;17.17;3.80;;;13.60;72.30;;;;;;5071285;28;20053;-77
2022/03/27 12:20:02;;;;;;;15.50;3.63;;;13.70;73.20;;;;;;5047049;28;20122;-76
2022/03/27 12:22:39;;;;;;;17.50;3.60;;;13.80;71.20;;;;;;5029968;28;20041;-77
2022/03/27 12:25:19;;;;;;;14.20;3.80;;;13.90;70.40;;;;;;5047779;28;20194;-77
2022/03/27 12:30:37;;;;;;;16.83;4.05;;;14.00;72.40;;;;;;5048517;28;20061;-77
2022/03/27 12:33:04;;;;;;;15.80;4.00;;;14.10;69.90;;;;;;5031835;28;20129;-76
2022/03/27 12:35:31;;;;;;;15.45;4.00;;;14.10;70.30;;;;;;5048836;28;20120;-77
2022/03/27 12:37:57;;;;;;;19.13;4.15;;;14.20;69.60;;;;;;5048300;28;20041;-76
2022/03/27 12:40:24;;;;;;;15.48;3.20;;;14.20;66.20;;;;;;5047767;28;20060;-77
2022/03/27 12:42:52;;;;;;;13.25;3.58;;;14.20;67.40;;;;;;5047793;28;20128;-77
2022/03/27 12:45:32;;;;;;;16.77;3.58;;;14.30;67.70;;;;;;5047320;28;20049;-76
2022/03/27 12:48:13;;;;;;;15.15;3.60;;;14.40;65.90;;;;;;5049656;28;20445;-77
2022/03/27 12:50:41;;;;;;;15.50;3.30;;;14.40;65.00;;;;;;5048854;28;20421;-77
2022/03/27 12:53:24;;;;;;;13.68;3.95;;;14.40;64.80;;;;;;5046700;28;20041;-77
2022/03/27 12:56:06;;;;;;;14.55;3.17;;;14.40;64.00;;;;;;5048240;28;20049;-76
2022/03/27 12:58:42;;;;;;;13.85;3.65;;;14.50;64.00;;;;;;5048874;28;20120;-77
2022/03/27 13:01:15;;;;;;;15.20;3.88;;;14.60;63.80;;;;;;5049089;28;20048;-77
2022/03/27 13:03:57;;;;;;;16.23;3.80;;;14.70;65.10;;;;;;5047943;28;20102;-77
2022/03/27 13:06:35;;;;;;;14.80;3.80;;;14.70;62.70;;;;;;5048787;28;20447;-76
2022/03/27 13:09:03;;;;;;;9.93;3.22;;;14.70;63.20;;;;;;5049639;28;20067;-77
2022/03/27 13:11:29;;;;;;;15.27;3.72;;;14.80;64.40;;;;;;5047314;28;20127;-77